Hlavní strana
METAR-TAF:

METAR-TAF

Letiště :

Kuusamo, Finsko

zeměpisná šířka: 65-58N, zeměpisná délka: 029-11E, výška: 262 m

Aktuální stav počasí

Zpráva byla vytvořena před 31 minutami, v 17:50 UTC
Západní vítr 8 kt, proměnlivý mezi západojihozápadním a severozápadním
Teplota -2°C
Vlhkost vzduchu 93%
Tlak 967 hPa
Viditelnost 10 km a více
Oblačno až skoro zataženo ve výšce 800 ft

METAR: EFKS 231750Z AUTO 28008KT 240V310 9999 BKN008 M02/M03 Q0967

Čas: 20:21 (18:21 UTC)

Předpověď počasí

Zpráva byla vytvořena před 55 minutami, v 17:26 UTC
Předpověď platná od 23 v 18 UTC do 23 v 23 UTC
Západní vítr 11 kt
Viditelnost 10 km a více
Oblačno až skoro zataženo ve výšce 800 ft
Změna
od 23 v 18 UTC do 23 v 20 UTC
Viditelnost 10 km a více
Žádná oblačnost pod 1500 m, nevyskytují se cumulonimby.

TAF: EFKS 231726Z 2318/2323 27011KT 9999 BKN008 BECMG 2318/2320 CAVOK

Stav a předpovědi počasí z více než 4 000 letišť (zprávy METAR a TAF).

Červené a žluté tečky na mapě představují dostupné meteorologické stanice.

Když kurzor umístíte na tečku, zobrazí se název stanice.

Pak kliknutím zobrazíte stav a předpověď počasí.

Chcete-li změnit mapu, kliknutím na zelené tlačítko se znaménkem +mapu přiblížíte, kliknutím na zelené tlačítko se znaménkem – mapu oddálíte a kliknutím na zelené šipky přejdete na sousední mapy.


METAR-TAF: